Time;durP1;ratioP1;P1;durP2;ratioP2;P2;SDS_P1;SDS_P2;PMS_P1;PMS_P2;Temp;Humidity;BMP_temperature;BMP_pressure;BME280_temperature;BME280_humidity;BME280_pressure;Samples;Min_cycle;Max_cycle;Signal;HPM_P1;HPM_P2
2021/10/13 05:47:28;;;;;;;8.52;2.92;;;17.10;70.30;;;;;;4787168;29;20067;-75
2021/10/13 05:49:53;;;;;;;12.60;3.25;;;17.20;70.00;;;;;;4790512;30;20433;-73
2021/10/13 05:52:19;;;;;;;11.82;3.50;;;17.30;70.10;;;;;;4790169;29;20462;-76
2021/10/13 05:54:45;;;;;;;11.70;2.97;;;17.20;70.10;;;;;;4790597;30;20378;-71
2021/10/13 05:57:10;;;;;;;7.72;2.35;;;17.30;70.20;;;;;;4790837;30;20051;-71
2021/10/13 05:59:38;;;;;;;14.35;3.42;;;17.30;69.80;;;;;;4790620;30;20063;-72
2021/10/13 06:02:04;;;;;;;4.18;1.08;;;17.20;69.40;;;;;;4790672;30;20093;-71
2021/10/13 06:04:30;;;;;;;4.38;2.00;;;16.80;65.60;;;;;;4790361;30;20482;-76
2021/10/13 06:06:55;;;;;;;11.70;2.67;;;16.80;69.00;;;;;;4790548;30;20048;-73
2021/10/13 06:09:21;;;;;;;11.68;2.75;;;16.90;70.00;;;;;;4790319;30;20082;-74
2021/10/13 06:11:47;;;;;;;9.45;2.25;;;16.90;70.10;;;;;;4790222;30;20047;-72
2021/10/13 06:14:13;;;;;;;8.38;1.85;;;16.90;70.00;;;;;;4790205;30;20051;-72
2021/10/13 06:16:38;;;;;;;6.43;1.73;;;17.00;69.80;;;;;;4775245;30;20133;-73
2021/10/13 06:19:04;;;;;;;5.78;1.77;;;16.90;69.60;;;;;;4774946;30;20130;-73
2021/10/13 06:21:30;;;;;;;10.52;1.50;;;16.90;69.60;;;;;;4774544;30;20055;-71
2021/10/13 06:23:56;;;;;;;7.53;1.80;;;16.90;69.60;;;;;;4790482;30;20051;-72
2021/10/13 06:26:21;;;;;;;4.63;1.70;;;16.90;69.50;;;;;;4790529;30;20506;-72
2021/10/13 06:28:49;;;;;;;5.53;1.42;;;16.90;69.50;;;;;;4790285;30;20063;-71
2021/10/13 06:31:15;;;;;;;6.97;1.52;;;16.90;69.50;;;;;;4790246;30;20130;-73
2021/10/13 06:33:40;;;;;;;6.57;1.63;;;16.90;69.50;;;;;;4790083;30;20190;-72
2021/10/13 06:36:07;;;;;;;4.38;1.63;;;16.90;69.50;;;;;;4790423;30;20047;-72
2021/10/13 06:38:34;;;;;;;7.97;1.70;;;16.80;69.40;;;;;;4790113;30;20058;-71
2021/10/13 06:41:01;;;;;;;5.13;1.65;;;16.80;69.30;;;;;;4789887;30;20474;-71
2021/10/13 06:43:27;;;;;;;6.03;1.52;;;16.80;69.40;;;;;;4789910;30;20051;-73
2021/10/13 06:45:53;;;;;;;5.45;1.30;;;16.80;69.40;;;;;;4773878;30;20479;-72
2021/10/13 06:48:21;;;;;;;4.22;1.00;;;16.70;69.30;;;;;;4789510;30;20059;-72
2021/10/13 06:50:47;;;;;;;4.53;1.40;;;16.70;69.30;;;;;;4790116;30;20114;-72
2021/10/13 06:53:13;;;;;;;3.05;0.95;;;16.70;69.30;;;;;;4790304;30;20067;-72
2021/10/13 06:55:39;;;;;;;4.13;1.23;;;16.70;69.30;;;;;;4789881;30;20047;-72
2021/10/13 06:58:05;;;;;;;4.05;1.13;;;16.60;69.40;;;;;;4774171;30;20399;-72
2021/10/13 07:00:31;;;;;;;4.03;1.20;;;16.70;69.50;;;;;;4790218;30;20555;-73
2021/10/13 07:02:56;;;;;;;4.57;1.20;;;16.70;69.50;;;;;;4790169;30;20091;-72
2021/10/13 07:05:22;;;;;;;3.38;1.23;;;16.70;69.50;;;;;;4774588;30;20107;-73
2021/10/13 07:07:49;;;;;;;2.90;0.98;;;16.60;69.50;;;;;;4774323;30;20379;-73
2021/10/13 07:10:16;;;;;;;2.95;0.93;;;16.60;69.60;;;;;;4789379;30;20062;-72
2021/10/13 07:12:42;;;;;;;3.72;0.90;;;16.60;69.60;;;;;;4789609;30;20058;-72
2021/10/13 07:15:09;;;;;;;3.03;0.95;;;16.60;69.60;;;;;;4790019;30;20059;-72
2021/10/13 07:17:35;;;;;;;7.45;1.52;;;16.60;69.70;;;;;;4789838;30;20043;-71
2021/10/13 07:20:04;;;;;;;3.22;1.17;;;16.60;69.70;;;;;;4789723;30;20058;-73
2021/10/13 07:22:31;;;;;;;2.90;0.73;;;16.60;69.60;;;;;;4789671;30;20138;-73
2021/10/13 07:24:58;;;;;;;4.03;1.00;;;16.60;69.70;;;;;;4789401;30;20065;-73
2021/10/13 07:27:24;;;;;;;5.18;0.75;;;16.60;69.80;;;;;;4774004;30;20070;-73
2021/10/13 07:30:02;;;;;;;3.13;1.20;;;16.60;69.80;;;;;;4789825;30;20420;-72
2021/10/13 07:32:30;;;;;;;3.78;0.90;;;16.50;69.70;;;;;;4789902;30;20063;-72
2021/10/13 07:34:56;;;;;;;1.88;0.80;;;16.50;69.70;;;;;;4789473;30;20102;-72
2021/10/13 07:37:23;;;;;;;4.65;0.90;;;16.50;69.70;;;;;;4789612;30;20541;-72
2021/10/13 07:39:49;;;;;;;4.78;0.75;;;16.60;69.80;;;;;;4789480;30;20051;-72
2021/10/13 07:42:16;;;;;;;5.00;0.90;;;16.50;69.80;;;;;;4789999;30;20059;-72
2021/10/13 07:44:42;;;;;;;4.10;0.95;;;16.50;69.80;;;;;;4789433;30;20056;-74
2021/10/13 07:47:08;;;;;;;2.92;0.82;;;16.50;69.80;;;;;;4773199;30;20557;-72
2021/10/13 07:49:34;;;;;;;2.13;0.70;;;16.50;69.90;;;;;;4773783;30;20051;-71
2021/10/13 07:52:00;;;;;;;3.38;0.88;;;16.50;69.90;;;;;;4789397;30;20142;-72
2021/10/13 07:54:26;;;;;;;2.47;0.70;;;16.50;69.90;;;;;;4773726;30;20083;-73
2021/10/13 07:56:52;;;;;;;3.85;0.60;;;16.50;69.90;;;;;;4789330;30;20055;-72
2021/10/13 07:59:17;;;;;;;1.88;0.70;;;16.50;69.90;;;;;;4791952;29;20132;-70
2021/10/13 08:01:43;;;;;;;2.60;0.98;;;16.50;69.90;;;;;;4792628;30;20464;-71
2021/10/13 08:04:09;;;;;;;3.13;0.77;;;16.50;69.90;;;;;;4776751;30;20139;-71
2021/10/13 08:06:34;;;;;;;2.47;0.70;;;16.50;70.10;;;;;;4792891;30;20051;-72
2021/10/13 08:09:00;;;;;;;2.60;0.60;;;16.50;70.20;;;;;;4792597;30;20090;-74
2021/10/13 08:11:26;;;;;;;3.38;0.68;;;16.50;70.10;;;;;;4792720;30;20375;-73
2021/10/13 08:13:52;;;;;;;3.17;0.85;;;16.50;70.10;;;;;;4776822;30;20065;-72
2021/10/13 08:16:18;;;;;;;1.85;0.60;;;16.50;70.20;;;;;;4792346;30;20054;-72
2021/10/13 08:18:44;;;;;;;2.10;0.75;;;16.50;70.30;;;;;;4776779;30;20055;-72
2021/10/13 08:21:10;;;;;;;1.83;0.73;;;16.50;70.30;;;;;;4776456;30;20074;-72
2021/10/13 08:23:36;;;;;;;4.05;0.80;;;16.50;70.40;;;;;;4776366;30;20459;-72
2021/10/13 08:26:03;;;;;;;3.30;0.50;;;16.50;70.30;;;;;;4776588;30;20059;-72
2021/10/13 08:28:29;;;;;;;1.60;0.50;;;16.60;70.40;;;;;;4792226;30;20090;-71
2021/10/13 08:30:57;;;;;;;2.35;0.40;;;16.60;70.40;;;;;;4792146;30;20047;-72
2021/10/13 08:33:23;;;;;;;1.80;0.60;;;16.60;70.40;;;;;;4792030;30;20186;-72
2021/10/13 08:35:49;;;;;;;2.38;0.57;;;16.60;70.40;;;;;;4791948;30;20439;-73
2021/10/13 08:38:15;;;;;;;3.50;0.60;;;16.60;70.50;;;;;;4776514;30;20106;-72
2021/10/13 08:40:42;;;;;;;3.92;0.60;;;16.60;70.40;;;;;;4792808;30;20086;-72
2021/10/13 08:43:08;;;;;;;2.30;0.50;;;16.60;70.30;;;;;;4776610;30;20069;-72
2021/10/13 08:45:36;;;;;;;2.38;0.40;;;16.60;70.30;;;;;;4796930;29;20137;-73
2021/10/13 08:48:04;;;;;;;1.88;0.50;;;16.60;70.20;;;;;;4809927;29;20054;-72
2021/10/13 08:50:30;;;;;;;2.28;0.70;;;16.70;70.20;;;;;;4794239;29;20051;-71
2021/10/13 08:53:13;;;;;;;1.90;0.40;;;16.70;70.20;;;;;;4809846;29;20057;-72
2021/10/13 08:55:40;;;;;;;2.60;0.60;;;16.70;70.10;;;;;;4810360;29;20101;-74
2021/10/13 08:58:15;;;;;;;1.73;0.30;;;16.70;70.20;;;;;;4808997;29;20063;-73
2021/10/13 09:00:44;;;;;;;3.28;0.40;;;16.70;70.20;;;;;;4794019;29;20131;-71
2021/10/13 09:03:47;;;;;;;2.33;0.52;;;16.70;70.20;;;;;;4794066;29;20496;-74
2021/10/13 09:06:22;;;;;;;2.92;0.50;;;16.70;70.10;;;;;;4771492;30;20048;-72
2021/10/13 09:08:57;;;;;;;5.22;0.50;;;16.70;70.20;;;;;;4804610;29;20062;-71
2021/10/13 09:11:47;;;;;;;6.68;1.35;;;16.70;68.60;;;;;;4808919;29;20058;-69
2021/10/13 09:14:27;;;;;;;3.45;0.57;;;16.70;67.40;;;;;;4794154;29;20428;-72
2021/10/13 09:17:10;;;;;;;5.68;0.65;;;16.70;66.70;;;;;;4793777;29;20058;-72
2021/10/13 09:19:43;;;;;;;9.80;0.90;;;16.70;66.80;;;;;;4810500;29;20061;-71
2021/10/13 09:22:11;;;;;;;9.50;0.70;;;16.60;67.20;;;;;;4809387;29;20058;-71
2021/10/13 09:24:45;;;;;;;7.32;0.88;;;16.50;67.70;;;;;;4808877;29;20101;-71
2021/10/13 09:27:24;;;;;;;;;;;16.40;68.00;;;;;;4810042;29;20390;-72
2021/10/13 09:29:56;;;;;;;5.90;0.88;;;16.40;68.30;;;;;;4778260;29;19936;-71
2021/10/13 09:32:26;;;;;;;5.30;0.60;;;16.40;68.90;;;;;;4808677;29;20119;-72
2021/10/13 09:34:52;;;;;;;5.38;0.85;;;16.40;69.00;;;;;;4808780;29;20066;-73
2021/10/13 09:37:18;;;;;;;3.70;0.43;;;16.50;69.00;;;;;;4809068;29;20097;-73
2021/10/13 09:40:00;;;;;;;2.65;0.50;;;16.60;69.00;;;;;;4809257;29;20348;-73
2021/10/13 09:42:26;;;;;;;4.63;0.68;;;16.80;68.90;;;;;;4809217;29;20062;-73
2021/10/13 09:44:59;;;;;;;2.35;0.75;;;16.90;68.70;;;;;;4809086;29;20051;-71
2021/10/13 09:47:33;;;;;;;4.68;0.60;;;16.90;68.60;;;;;;4808844;29;20129;-72
2021/10/13 09:49:59;;;;;;;5.68;0.50;;;17.00;68.60;;;;;;4808761;29;20490;-73
2021/10/13 09:52:30;;;;;;;3.25;0.45;;;17.10;68.50;;;;;;4809089;29;20494;-72
2021/10/13 09:55:02;;;;;;;2.33;0.30;;;17.10;68.50;;;;;;4809016;29;20059;-72
2021/10/13 09:57:32;;;;;;;2.53;0.30;;;17.20;68.60;;;;;;4808893;29;20435;-73
2021/10/13 10:00:01;;;;;;;2.22;0.50;;;17.20;68.60;;;;;;4808428;29;20050;-72
2021/10/13 10:02:31;;;;;;;2.63;0.32;;;17.20;68.60;;;;;;4808857;29;20420;-73
2021/10/13 10:05:04;;;;;;;2.03;0.20;;;17.20;68.70;;;;;;4808651;29;20050;-73
2021/10/13 10:07:30;;;;;;;4.03;0.97;;;17.30;68.80;;;;;;4808862;29;20047;-74
2021/10/13 10:10:25;;;;;;;2.28;0.25;;;17.30;68.80;;;;;;4808575;29;20054;-72
2021/10/13 10:13:01;;;;;;;1.48;0.30;;;17.30;68.80;;;;;;4800136;29;20451;-72
2021/10/13 10:15:39;;;;;;;3.60;0.38;;;17.30;68.90;;;;;;4792658;29;20047;-73
2021/10/13 10:18:32;;;;;;;2.45;0.40;;;17.30;68.90;;;;;;4808751;29;20046;-73
2021/10/13 10:21:26;;;;;;;8.13;0.73;;;17.30;69.00;;;;;;4803496;29;20073;-73
2021/10/13 10:23:58;;;;;;;0.85;0.25;;;17.40;69.00;;;;;;4792440;29;20094;-72
2021/10/13 10:26:29;;;;;;;2.35;0.28;;;17.50;69.00;;;;;;4808008;29;20411;-72
2021/10/13 10:28:57;;;;;;;4.22;0.43;;;17.60;68.80;;;;;;4808116;29;20086;-73
2021/10/13 10:31:32;;;;;;;4.40;0.40;;;17.60;68.60;;;;;;4808044;29;20474;-73
2021/10/13 10:34:06;;;;;;;0.82;0.25;;;17.80;68.50;;;;;;4808166;29;20055;-72
2021/10/13 10:36:35;;;;;;;2.15;0.30;;;17.90;68.10;;;;;;4791829;29;20080;-72
2021/10/13 10:39:07;;;;;;;1.70;0.47;;;17.90;67.90;;;;;;4808178;29;20054;-72
2021/10/13 10:41:43;;;;;;;3.15;0.50;;;18.00;67.80;;;;;;4808264;29;20118;-72
2021/10/13 10:44:30;;;;;;;1.75;0.30;;;18.10;67.40;;;;;;4792275;29;20063;-73
2021/10/13 10:47:09;;;;;;;3.70;0.40;;;18.20;67.60;;;;;;4791699;29;20059;-72
2021/10/13 10:49:46;;;;;;;1.77;0.45;;;18.20;67.50;;;;;;4807956;29;20423;-73
2021/10/13 10:52:19;;;;;;;1.33;0.30;;;18.20;67.10;;;;;;4807615;29;20488;-73
2021/10/13 10:55:11;;;;;;;1.27;0.30;;;18.30;67.40;;;;;;4807917;29;20111;-72
2021/10/13 10:57:39;;;;;;;1.15;0.20;;;18.30;67.00;;;;;;4805181;29;20363;-73
2021/10/13 11:00:09;;;;;;;2.38;0.50;;;18.30;67.20;;;;;;4807765;29;20074;-73
2021/10/13 11:02:35;;;;;;;2.78;0.40;;;18.30;67.40;;;;;;4807827;29;20055;-72
2021/10/13 11:05:06;;;;;;;1.90;0.40;;;18.20;67.90;;;;;;4807828;29;20126;-72
2021/10/13 11:07:32;;;;;;;4.07;0.30;;;18.20;67.50;;;;;;4807898;29;20398;-73
2021/10/13 11:10:07;;;;;;;1.13;0.30;;;18.10;67.60;;;;;;4792036;29;20059;-72
2021/10/13 11:12:50;;;;;;;1.50;0.30;;;18.10;67.80;;;;;;4791737;29;20093;-73
2021/10/13 11:15:17;;;;;;;4.07;0.35;;;18.10;67.70;;;;;;4807906;29;20108;-72
2021/10/13 11:17:43;;;;;;;2.85;0.32;;;18.10;67.90;;;;;;4807700;29;20043;-74
2021/10/13 11:20:11;;;;;;;2.67;0.40;;;18.10;68.00;;;;;;4807689;29;20069;-72
2021/10/13 11:22:37;;;;;;;1.23;0.20;;;18.10;68.00;;;;;;4807369;29;20055;-74
2021/10/13 11:25:17;;;;;;;2.15;0.25;;;18.10;68.10;;;;;;4790789;29;20054;-74
2021/10/13 11:28:00;;;;;;;1.10;0.25;;;18.10;67.60;;;;;;4799075;29;20087;-72
2021/10/13 11:30:30;;;;;;;1.90;0.20;;;18.10;68.20;;;;;;4792056;29;20363;-74
2021/10/13 11:32:57;;;;;;;1.58;0.32;;;18.10;68.20;;;;;;4808453;29;20095;-73
2021/10/13 11:35:23;;;;;;;1.85;0.40;;;18.10;68.20;;;;;;4810960;29;20146;-73
2021/10/13 11:37:50;;;;;;;2.22;0.20;;;18.00;68.30;;;;;;4810971;29;20070;-72
2021/10/13 11:40:18;;;;;;;3.55;0.45;;;18.00;68.30;;;;;;4811392;29;20066;-73
2021/10/13 11:42:45;;;;;;;1.10;0.20;;;18.00;68.30;;;;;;4811175;29;20051;-73
2021/10/13 11:45:16;;;;;;;3.15;0.32;;;18.00;68.30;;;;;;4810641;29;20061;-72
2021/10/13 11:47:42;;;;;;;1.50;0.20;;;18.10;68.40;;;;;;4795044;29;20062;-72
2021/10/13 11:50:18;;;;;;;2.17;0.32;;;18.10;68.30;;;;;;4810901;29;20058;-72
2021/10/13 12:42:25;;;;;;;5.60;0.70;;;17.60;68.40;;;;;;4803456;29;20059;-72
2021/10/13 12:44:59;;;;;;;8.07;0.63;;;17.60;68.50;;;;;;4809150;29;20065;-71
2021/10/13 12:47:26;;;;;;;7.82;1.35;;;17.50;68.60;;;;;;4793844;29;20066;-71
2021/10/13 12:49:51;;;;;;;6.63;0.80;;;17.50;68.70;;;;;;4802985;29;20419;-71
2021/10/13 12:52:26;;;;;;;6.68;0.57;;;17.50;68.90;;;;;;4809866;29;20057;-73
2021/10/13 12:54:57;;;;;;;7.68;1.08;;;17.50;69.10;;;;;;4809921;29;20051;-71
2021/10/13 12:57:28;;;;;;;7.35;0.47;;;17.50;69.30;;;;;;4810007;29;20390;-71
2021/10/13 12:59:54;;;;;;;5.15;0.90;;;17.50;69.40;;;;;;4794024;29;20174;-71
2021/10/13 13:02:20;;;;;;;6.75;0.52;;;17.50;69.50;;;;;;4810229;29;20051;-71
2021/10/13 13:04:46;;;;;;;6.38;0.60;;;17.50;69.60;;;;;;4809745;29;20063;-72
2021/10/13 13:07:14;;;;;;;4.68;0.52;;;17.40;69.60;;;;;;4809770;29;20084;-71
2021/10/13 13:09:41;;;;;;;3.67;0.63;;;17.40;69.90;;;;;;4809348;29;20404;-72
2021/10/13 13:12:07;;;;;;;3.35;0.82;;;17.40;70.00;;;;;;4809505;29;20114;-70
2021/10/13 13:14:33;;;;;;;5.88;0.90;;;17.40;70.10;;;;;;4809637;29;20053;-72
2021/10/13 13:16:59;;;;;;;3.42;0.52;;;17.40;70.20;;;;;;4809674;29;20062;-71
2021/10/13 13:19:25;;;;;;;6.88;1.10;;;17.40;70.30;;;;;;4794343;29;20047;-71
2021/10/13 13:21:51;;;;;;;6.95;0.82;;;17.40;70.30;;;;;;4808900;29;20047;-71
2021/10/13 13:24:18;;;;;;;5.32;0.43;;;17.40;70.40;;;;;;4809308;29;20061;-71
2021/10/13 13:26:45;;;;;;;3.72;0.60;;;17.30;70.50;;;;;;4809509;29;20066;-71
2021/10/13 13:29:11;;;;;;;5.25;0.65;;;17.40;70.60;;;;;;4793188;29;20125;-71
2021/10/13 13:31:37;;;;;;;2.00;0.55;;;17.40;70.70;;;;;;4809342;29;20417;-71
2021/10/13 13:34:03;;;;;;;7.28;0.80;;;17.40;70.80;;;;;;4809223;29;20458;-73
2021/10/13 13:36:29;;;;;;;5.55;0.55;;;17.40;70.70;;;;;;4808953;29;20061;-72
2021/10/13 13:38:55;;;;;;;5.82;0.50;;;17.40;70.70;;;;;;4809139;29;20105;-72
2021/10/13 13:41:21;;;;;;;3.10;0.50;;;17.40;70.70;;;;;;4801485;29;20102;-73
2021/10/13 13:43:48;;;;;;;4.22;0.82;;;17.40;70.80;;;;;;4809101;29;20089;-71
2021/10/13 13:46:19;;;;;;;3.45;0.43;;;17.40;70.80;;;;;;4809600;29;20055;-71
2021/10/13 13:48:47;;;;;;;9.15;0.90;;;17.40;71.10;;;;;;4808996;29;20062;-71
2021/10/13 14:35:14;;;;;;;16.23;1.40;;;17.20;69.60;;;;;;5080047;24;21973;-70
2021/10/13 14:37:40;;;;;;;14.57;1.35;;;17.20;70.40;;;;;;4807748;29;20200;-73
2021/10/13 14:40:06;;;;;;;11.52;1.30;;;17.20;70.60;;;;;;4792422;29;20055;-70
2021/10/13 14:42:32;;;;;;;14.68;1.23;;;17.10;70.10;;;;;;4808218;29;20428;-71
2021/10/13 14:44:58;;;;;;;10.93;1.23;;;17.00;70.10;;;;;;4792396;29;20128;-72
2021/10/13 14:47:25;;;;;;;12.25;1.70;;;16.90;70.40;;;;;;4792294;29;20047;-75
2021/10/13 14:49:52;;;;;;;9.77;1.30;;;16.90;71.30;;;;;;4807891;29;20543;-73
2021/10/13 14:52:19;;;;;;;5.57;1.20;;;17.00;72.00;;;;;;4792684;29;20115;-73
2021/10/13 14:54:45;;;;;;;6.75;1.15;;;17.10;72.30;;;;;;4791994;29;20063;-72
2021/10/13 14:57:11;;;;;;;18.90;1.27;;;17.10;72.00;;;;;;4807968;29;20406;-71
2021/10/13 14:59:37;;;;;;;11.35;1.23;;;17.10;71.50;;;;;;4808039;29;20047;-73
2021/10/13 15:02:04;;;;;;;5.82;1.00;;;17.30;70.80;;;;;;4807525;29;20114;-72
2021/10/13 15:04:30;;;;;;;9.57;1.30;;;17.50;70.20;;;;;;4806127;29;20047;-72
2021/10/13 15:06:56;;;;;;;10.57;1.77;;;17.80;69.70;;;;;;4802689;29;20047;-71
2021/10/13 15:09:22;;;;;;;11.82;2.30;;;18.00;69.30;;;;;;4791769;29;20364;-71
2021/10/13 15:11:48;;;;;;;7.35;1.45;;;18.30;69.10;;;;;;4807797;29;20053;-72
2021/10/13 15:14:14;;;;;;;11.43;2.13;;;18.50;68.90;;;;;;4807722;29;20051;-72
2021/10/13 16:18:47;;;;;;;9.40;1.30;;;18.40;72.50;;;;;;4939557;24;20059;-72
2021/10/13 16:21:15;;;;;;;5.95;1.20;;;18.30;72.50;;;;;;4810319;29;20133;-73
2021/10/13 16:23:42;;;;;;;8.40;1.35;;;18.30;72.60;;;;;;4810537;29;20043;-71
2021/10/13 16:26:09;;;;;;;7.50;1.30;;;18.30;72.60;;;;;;4810171;29;20055;-71
2021/10/13 16:28:36;;;;;;;5.68;1.30;;;18.20;72.50;;;;;;4810546;29;20495;-73
2021/10/13 16:31:02;;;;;;;5.57;1.10;;;18.20;72.50;;;;;;4810353;29;20366;-72
2021/10/13 16:33:28;;;;;;;10.63;1.30;;;18.20;72.50;;;;;;4810469;29;20062;-72
2021/10/13 16:35:54;;;;;;;4.18;0.98;;;18.20;72.20;;;;;;4809350;29;20051;-73
2021/10/13 16:38:19;;;;;;;6.55;1.10;;;18.20;72.40;;;;;;4799841;29;20047;-73
2021/10/13 16:40:45;;;;;;;3.75;0.88;;;18.10;72.30;;;;;;4792519;30;20456;-72
2021/10/13 16:43:11;;;;;;;3.20;1.08;;;18.10;72.30;;;;;;4792180;30;20048;-72
2021/10/13 16:45:37;;;;;;;4.10;0.98;;;18.10;72.20;;;;;;4777209;30;20134;-73
2021/10/13 16:48:03;;;;;;;4.72;1.08;;;18.10;72.20;;;;;;4792125;30;20112;-72
2021/10/13 16:50:29;;;;;;;5.45;1.10;;;18.10;72.20;;;;;;4796548;29;20055;-72
2021/10/13 16:52:59;;;;;;;2.22;0.77;;;18.00;72.10;;;;;;4788319;29;20061;-73
2021/10/13 16:55:24;;;;;;;4.70;1.50;;;18.00;72.10;;;;;;4794064;29;20062;-73
2021/10/13 16:57:50;;;;;;;4.03;0.70;;;18.00;72.10;;;;;;4809637;29;20059;-73
2021/10/13 17:00:16;;;;;;;3.30;0.82;;;18.00;72.20;;;;;;4810325;29;20055;-74
2021/10/13 17:02:42;;;;;;;3.97;1.20;;;17.90;72.20;;;;;;4810099;29;20172;-72
2021/10/13 17:05:08;;;;;;;2.92;0.80;;;17.90;72.20;;;;;;4807585;29;20047;-71
2021/10/13 17:07:35;;;;;;;3.83;0.95;;;18.00;72.30;;;;;;4809831;29;20378;-73
2021/10/13 17:10:06;;;;;;;9.00;1.25;;;17.90;71.80;;;;;;4805731;29;20137;-72
2021/10/13 17:12:33;;;;;;;3.88;0.70;;;18.00;72.10;;;;;;4802117;29;20469;-72
2021/10/13 17:15:00;;;;;;;2.67;0.82;;;17.90;72.10;;;;;;4809471;29;20078;-72
2021/10/13 17:17:25;;;;;;;2.75;0.90;;;17.90;72.20;;;;;;4809959;29;20051;-73
2021/10/13 17:19:51;;;;;;;4.22;0.90;;;17.90;72.30;;;;;;4809778;29;20159;-72
2021/10/13 17:22:17;;;;;;;3.00;0.90;;;17.80;72.30;;;;;;4809117;29;20054;-71
2021/10/13 17:24:42;;;;;;;8.50;1.17;;;17.80;72.40;;;;;;4809808;29;20075;-72
2021/10/13 17:27:08;;;;;;;4.13;0.63;;;17.80;72.40;;;;;;4792798;29;20101;-72
2021/10/13 17:29:37;;;;;;;4.38;1.08;;;17.80;72.40;;;;;;4806497;29;20054;-72
2021/10/13 17:32:03;;;;;;;5.82;0.90;;;17.80;72.50;;;;;;4808945;29;20086;-73
2021/10/13 17:34:29;;;;;;;5.55;1.38;;;17.80;72.60;;;;;;4809168;29;20046;-71
